Time;durP1;ratioP1;P1;durP2;ratioP2;P2;SDS_P1;SDS_P2;PMS_P1;PMS_P2;Temp;Humidity;BMP_temperature;BMP_pressure;BME280_temperature;BME280_humidity;BME280_pressure;Samples;Min_cycle;Max_cycle;Signal;HPM_P1;HPM_P2
2022/06/24 00:01:58;;;;;;;2.75;1.27;;;;;;;;;;5004334;28;20527;-84
2022/06/24 00:04:33;;;;;;;2.53;1.30;;;;;;;;;;4988197;28;20050;-84
2022/06/24 00:06:58;;;;;;;2.30;1.15;;;;;;;;;;4988118;28;20053;-84
2022/06/24 00:09:28;;;;;;;1.85;1.00;;;;;;;;;;4989283;28;20143;-84
2022/06/24 00:12:02;;;;;;;2.47;1.25;;;;;;;;;;5004492;28;20038;-84
2022/06/24 00:14:27;;;;;;;2.55;1.20;;;;;;;;;;5005104;28;20037;-83
2022/06/24 00:16:56;;;;;;;3.00;1.30;;;;;;;;;;5004221;28;20072;-84
2022/06/24 00:19:23;;;;;;;2.47;1.50;;;;;;;;;;5006968;28;20556;-83
2022/06/24 00:22:05;;;;;;;2.58;1.20;;;;;;;;;;4987292;28;20370;-84
2022/06/24 00:24:32;;;;;;;2.83;1.30;;;;;;;;;;5004527;28;20088;-83
2022/06/24 00:26:57;;;;;;;2.45;1.35;;;;;;;;;;4974071;28;20084;-83
2022/06/24 00:29:27;;;;;;;2.58;1.30;;;;;;;;;;4975198;28;20047;-83
2022/06/24 00:32:05;;;;;;;2.20;1.10;;;;;;;;;;4987972;28;20045;-84
2022/06/24 00:34:30;;;;;;;;;;;;;;;;;;4988628;28;20417;-83
2022/06/24 00:36:56;;;;;;;2.10;1.10;;;;;;;;;;4988061;28;19920;-83
2022/06/24 00:39:33;;;;;;;2.67;1.33;;;;;;;;;;4972642;28;20064;-84
2022/06/24 00:41:59;;;;;;;2.95;1.42;;;;;;;;;;4986746;28;20579;-83
2022/06/24 00:44:28;;;;;;;2.42;1.40;;;;;;;;;;4987735;28;20100;-84
2022/06/24 00:46:57;;;;;;;3.00;1.42;;;;;;;;;;4980182;28;20066;-84
2022/06/24 00:49:27;;;;;;;2.25;1.23;;;;;;;;;;4974463;28;20042;-84
2022/06/24 00:51:53;;;;;;;2.10;1.30;;;;;;;;;;4971031;28;20033;-83
2022/06/24 00:54:18;;;;;;;2.55;1.30;;;;;;;;;;4971945;28;20044;-82
2022/06/24 00:56:45;;;;;;;3.58;1.67;;;;;;;;;;4976882;28;20042;-82
2022/06/24 00:59:10;;;;;;;2.60;1.48;;;;;;;;;;4989005;28;20041;-82
2022/06/24 01:01:38;;;;;;;3.83;1.42;;;;;;;;;;4976896;28;20084;-83
2022/06/24 01:04:07;;;;;;;2.55;1.23;;;;;;;;;;4974174;28;20149;-83
2022/06/24 01:06:33;;;;;;;2.85;1.30;;;;;;;;;;4971088;28;20114;-83
2022/06/24 01:08:59;;;;;;;2.72;1.40;;;;;;;;;;4972073;28;20104;-83
2022/06/24 01:11:34;;;;;;;3.05;1.48;;;;;;;;;;4987116;28;20489;-84
2022/06/24 01:13:59;;;;;;;2.10;1.20;;;;;;;;;;4988144;28;20054;-84
2022/06/24 01:16:25;;;;;;;2.65;1.27;;;;;;;;;;4964850;28;20086;-84
2022/06/24 01:18:52;;;;;;;2.45;1.20;;;;;;;;;;4964851;28;20026;-84
2022/06/24 01:21:38;;;;;;;2.58;1.30;;;;;;;;;;4979351;28;20073;-84
2022/06/24 01:24:16;;;;;;;2.45;1.17;;;;;;;;;;5004018;28;20149;-84
2022/06/24 01:26:46;;;;;;;2.63;1.50;;;;;;;;;;5003964;28;20033;-84
2022/06/24 01:29:12;;;;;;;3.50;1.73;;;;;;;;;;4988294;28;20532;-84
2022/06/24 01:31:40;;;;;;;2.65;1.40;;;;;;;;;;4997211;28;20045;-84
2022/06/24 01:34:07;;;;;;;2.30;1.30;;;;;;;;;;5004001;28;20034;-82
2022/06/24 01:36:32;;;;;;;2.95;1.50;;;;;;;;;;5003569;28;20404;-83
2022/06/24 01:38:57;;;;;;;2.85;1.50;;;;;;;;;;5003644;28;20113;-84
2022/06/24 01:41:23;;;;;;;2.50;1.50;;;;;;;;;;4987517;28;20120;-84
2022/06/24 01:43:48;;;;;;;3.15;1.80;;;;;;;;;;5003677;28;20117;-83
2022/06/24 01:46:14;;;;;;;3.00;1.60;;;;;;;;;;4987348;28;20384;-83
2022/06/24 01:48:42;;;;;;;2.70;1.65;;;;;;;;;;4989700;28;20556;-83
2022/06/24 01:51:10;;;;;;;2.70;1.48;;;;;;;;;;4990308;28;20046;-84
2022/06/24 01:53:35;;;;;;;2.63;1.50;;;;;;;;;;4988743;28;20041;-84
2022/06/24 01:56:01;;;;;;;2.60;1.55;;;;;;;;;;5006916;28;20113;-83
2022/06/24 01:58:26;;;;;;;3.70;2.00;;;;;;;;;;5007801;28;20038;-84
2022/06/24 02:00:52;;;;;;;3.08;1.80;;;;;;;;;;4998420;28;20464;-84
2022/06/24 02:03:17;;;;;;;3.70;1.98;;;;;;;;;;5007880;28;20062;-83
2022/06/24 02:05:45;;;;;;;3.05;1.83;;;;;;;;;;4990256;28;20034;-82
2022/06/24 02:08:10;;;;;;;2.72;1.75;;;;;;;;;;5007697;28;20096;-83
2022/06/24 02:13:26;;;;;;;3.50;2.10;;;;;;;;;;5006594;28;20041;-83
2022/06/24 02:15:59;;;;;;;5.05;2.25;;;;;;;;;;4990975;28;20061;-83
2022/06/24 02:18:26;;;;;;;3.72;1.95;;;;;;;;;;5007063;28;20034;-83
2022/06/24 02:20:52;;;;;;;4.20;2.28;;;;;;;;;;4989068;28;20130;-84
2022/06/24 02:23:18;;;;;;;4.88;2.05;;;;;;;;;;4985033;28;20584;-83
2022/06/24 02:25:44;;;;;;;3.60;2.15;;;;;;;;;;4975572;28;20026;-82
2022/06/24 02:28:11;;;;;;;3.33;2.00;;;;;;;;;;4991484;28;20100;-85
2022/06/24 02:30:38;;;;;;;4.72;2.35;;;;;;;;;;4974609;28;20040;-85
2022/06/24 02:33:04;;;;;;;3.53;2.28;;;;;;;;;;4990744;28;20057;-82
2022/06/24 02:35:29;;;;;;;3.13;2.03;;;;;;;;;;4980117;28;20453;-82
2022/06/24 02:37:54;;;;;;;4.05;1.80;;;;;;;;;;4991014;28;20041;-82
2022/06/24 02:40:53;;;;;;;3.00;1.98;;;;;;;;;;4989357;28;20038;-82
2022/06/24 02:43:15;;;;;;;4.13;2.20;;;;;;;;;;5003718;28;20046;-82
2022/06/24 02:45:44;;;;;;;3.45;1.88;;;;;;;;;;5007281;28;20046;-85
2022/06/24 02:48:10;;;;;;;5.22;2.00;;;;;;;;;;4963652;28;20034;-84
2022/06/24 02:50:39;;;;;;;3.58;2.05;;;;;;;;;;4989580;28;20187;-83
2022/06/24 02:53:05;;;;;;;3.17;1.85;;;;;;;;;;4978295;28;20030;-83
2022/06/24 02:55:30;;;;;;;3.33;2.10;;;;;;;;;;4985480;28;20029;-81
2022/06/24 02:57:55;;;;;;;4.40;1.92;;;;;;;;;;4989892;28;20034;-82
2022/06/24 03:00:21;;;;;;;3.05;1.85;;;;;;;;;;4989183;28;20408;-83
2022/06/24 03:03:06;;;;;;;3.80;2.10;;;;;;;;;;4990515;28;20073;-83
2022/06/24 03:05:32;;;;;;;3.95;1.90;;;;;;;;;;4944904;28;20130;-82
2022/06/24 03:07:57;;;;;;;3.30;1.90;;;;;;;;;;4918869;28;20189;-82
2022/06/24 03:10:23;;;;;;;3.08;2.00;;;;;;;;;;4930764;28;20086;-83
2022/06/24 03:12:48;;;;;;;2.90;1.77;;;;;;;;;;4946595;28;20054;-82
2022/06/24 03:15:13;;;;;;;3.65;2.05;;;;;;;;;;4916789;28;20126;-81
2022/06/24 03:17:39;;;;;;;3.50;2.17;;;;;;;;;;4930913;28;20557;-83
2022/06/24 03:20:08;;;;;;;3.65;1.90;;;;;;;;;;4929945;28;20145;-81
2022/06/24 03:22:34;;;;;;;3.38;1.95;;;;;;;;;;4936868;28;20578;-83
2022/06/24 03:25:00;;;;;;;3.20;2.00;;;;;;;;;;4965086;28;20042;-81
2022/06/24 03:27:25;;;;;;;3.03;1.95;;;;;;;;;;4965400;28;20187;-81
2022/06/24 03:29:51;;;;;;;3.70;2.00;;;;;;;;;;4949521;28;20034;-82
2022/06/24 03:32:16;;;;;;;3.55;2.15;;;;;;;;;;4948881;28;20050;-81
2022/06/24 03:34:41;;;;;;;4.07;2.10;;;;;;;;;;4934028;28;20471;-82
2022/06/24 03:37:07;;;;;;;3.13;1.92;;;;;;;;;;4964968;28;20047;-83
2022/06/24 03:39:32;;;;;;;4.30;2.35;;;;;;;;;;4949617;28;20561;-82
2022/06/24 03:41:57;;;;;;;5.25;2.42;;;;;;;;;;4959976;28;20049;-82
2022/06/24 03:44:23;;;;;;;3.45;2.17;;;;;;;;;;4987636;28;20392;-82
2022/06/24 03:46:48;;;;;;;3.35;2.08;;;;;;;;;;4989066;28;20033;-83
2022/06/24 03:49:15;;;;;;;3.85;2.10;;;;;;;;;;5005773;28;20057;-81
2022/06/24 03:52:01;;;;;;;3.78;2.28;;;;;;;;;;5021783;28;20034;-83
2022/06/24 03:54:26;;;;;;;3.08;2.03;;;;;;;;;;4948921;28;20039;-83
2022/06/24 03:56:52;;;;;;;3.40;2.30;;;;;;;;;;4953578;28;20035;-84
2022/06/24 03:59:20;;;;;;;5.95;2.35;;;;;;;;;;4952743;28;20506;-81
2022/06/24 04:01:46;;;;;;;3.25;2.10;;;;;;;;;;4964265;28;20371;-81
2022/06/24 04:04:11;;;;;;;3.72;2.28;;;;;;;;;;4949858;28;20053;-82
2022/06/24 04:06:36;;;;;;;2.85;1.83;;;;;;;;;;4954324;28;20593;-83
2022/06/24 04:09:02;;;;;;;3.50;1.90;;;;;;;;;;4949296;28;20102;-82
2022/06/24 04:11:28;;;;;;;3.47;2.10;;;;;;;;;;4954154;28;20043;-82
2022/06/24 04:13:53;;;;;;;4.03;2.42;;;;;;;;;;4948727;28;20537;-82
2022/06/24 04:16:20;;;;;;;3.60;2.30;;;;;;;;;;4947513;28;20488;-84
2022/06/24 04:18:47;;;;;;;3.70;2.08;;;;;;;;;;4933010;28;20098;-83
2022/06/24 04:21:15;;;;;;;3.45;2.13;;;;;;;;;;4948312;28;20093;-83
2022/06/24 04:23:40;;;;;;;2.83;1.70;;;;;;;;;;4949138;28;20055;-84
2022/06/24 04:26:06;;;;;;;5.68;2.10;;;;;;;;;;4949104;28;20540;-84
2022/06/24 04:28:32;;;;;;;3.92;2.00;;;;;;;;;;4936312;28;20062;-85
2022/06/24 04:30:57;;;;;;;3.33;1.80;;;;;;;;;;4947423;28;20054;-85
2022/06/24 04:33:22;;;;;;;2.60;1.63;;;;;;;;;;4993915;28;20046;-85
2022/06/24 04:35:48;;;;;;;3.58;1.83;;;;;;;;;;4993072;28;20069;-85
2022/06/24 04:38:14;;;;;;;3.35;1.70;;;;;;;;;;5007324;28;20084;-83
2022/06/24 04:40:39;;;;;;;3.58;1.77;;;;;;;;;;5007534;28;20583;-84
2022/06/24 04:43:05;;;;;;;3.30;1.77;;;;;;;;;;4987600;28;20060;-84
2022/06/24 04:45:30;;;;;;;3.17;1.65;;;;;;;;;;4992022;28;20045;-84
2022/06/24 04:47:56;;;;;;;3.63;1.90;;;;;;;;;;4999191;28;20050;-84
2022/06/24 04:50:21;;;;;;;6.10;2.45;;;;;;;;;;5003442;28;20049;-85
2022/06/24 04:52:46;;;;;;;3.97;1.75;;;;;;;;;;5004453;28;20048;-85
2022/06/24 04:55:12;;;;;;;3.67;1.52;;;;;;;;;;4996693;28;20073;-84
2022/06/24 04:57:38;;;;;;;2.67;1.35;;;;;;;;;;4983677;28;20076;-85
2022/06/24 05:00:05;;;;;;;3.75;1.90;;;;;;;;;;4987962;28;20037;-83
2022/06/24 05:02:30;;;;;;;3.28;1.67;;;;;;;;;;4986669;28;20172;-84
2022/06/24 05:04:55;;;;;;;2.83;1.60;;;;;;;;;;5004077;28;20117;-84
2022/06/24 05:07:21;;;;;;;3.10;1.75;;;;;;;;;;5003527;28;20050;-83
2022/06/24 05:09:46;;;;;;;2.67;1.30;;;;;;;;;;4986551;28;20038;-84
2022/06/24 05:12:12;;;;;;;2.60;1.50;;;;;;;;;;4987265;28;20121;-83
2022/06/24 05:14:37;;;;;;;2.70;1.50;;;;;;;;;;4992509;28;20390;-86
2022/06/24 05:17:03;;;;;;;3.28;1.50;;;;;;;;;;4993956;28;20068;-85
2022/06/24 05:19:28;;;;;;;2.95;1.52;;;;;;;;;;4993615;28;20037;-88
2022/06/24 05:21:54;;;;;;;2.47;1.40;;;;;;;;;;4988886;28;20030;-87
2022/06/24 05:24:20;;;;;;;3.20;1.58;;;;;;;;;;4965250;28;20038;-91
2022/06/24 05:26:46;;;;;;;3.45;1.40;;;;;;;;;;4984758;28;20064;-88
2022/06/24 05:29:12;;;;;;;4.40;1.88;;;;;;;;;;4986145;28;20527;-87
2022/06/24 05:31:37;;;;;;;2.90;1.45;;;;;;;;;;4978860;28;20038;-93
2022/06/24 05:34:03;;;;;;;3.05;1.70;;;;;;;;;;4976199;28;20097;-90
2022/06/24 05:36:28;;;;;;;4.75;1.50;;;;;;;;;;4991068;28;20026;-90
2022/06/24 05:38:57;;;;;;;3.00;1.50;;;;;;;;;;4982928;28;20132;-90
2022/06/24 05:41:22;;;;;;;2.40;1.30;;;;;;;;;;4983329;28;20037;-91
2022/06/24 05:43:48;;;;;;;2.13;1.30;;;;;;;;;;4991546;28;20045;-90
2022/06/24 05:46:13;;;;;;;5.00;1.75;;;;;;;;;;4979330;28;20038;-89
2022/06/24 05:48:39;;;;;;;2.78;1.52;;;;;;;;;;4975796;28;20424;-90
2022/06/24 05:51:13;;;;;;;4.13;1.55;;;;;;;;;;4989843;28;20034;-90
2022/06/24 05:56:23;;;;;;;2.50;1.15;;;;;;;;;;4974213;28;20452;-93
2022/06/24 05:58:49;;;;;;;2.85;1.20;;;;;;;;;;4980428;28;20038;-85
2022/06/24 06:01:14;;;;;;;3.20;1.55;;;;;;;;;;4990195;28;20037;-84
2022/06/24 06:03:40;;;;;;;5.40;1.95;;;;;;;;;;4974776;28;20033;-84
2022/06/24 06:06:06;;;;;;;2.30;1.30;;;;;;;;;;4983055;28;20103;-85
2022/06/24 06:08:32;;;;;;;3.47;1.30;;;;;;;;;;4974625;28;20050;-87
2022/06/24 06:10:57;;;;;;;8.23;1.45;;;;;;;;;;4974475;28;20495;-87
2022/06/24 06:13:23;;;;;;;2.83;1.25;;;;;;;;;;4991014;28;20562;-86
2022/06/24 06:15:48;;;;;;;4.32;1.30;;;;;;;;;;4974128;28;20030;-86
2022/06/24 06:18:14;;;;;;;2.72;1.20;;;;;;;;;;4976498;28;20393;-85
2022/06/24 06:20:39;;;;;;;2.35;1.30;;;;;;;;;;4991818;28;20121;-86
2022/06/24 06:23:04;;;;;;;2.53;1.20;;;;;;;;;;4983636;28;20053;-86
2022/06/24 06:25:31;;;;;;;3.03;1.42;;;;;;;;;;4990561;28;20571;-83
2022/06/24 06:27:56;;;;;;;3.23;1.37;;;;;;;;;;5000623;28;20038;-79
2022/06/24 06:30:32;;;;;;;3.22;1.50;;;;;;;;;;5005574;28;20042;-87
2022/06/24 06:32:59;;;;;;;5.43;1.60;;;;;;;;;;4980098;28;20056;-87
2022/06/24 06:35:25;;;;;;;2.33;1.27;;;;;;;;;;5000071;28;20113;-88
2022/06/24 06:38:31;;;;;;;2.47;1.23;;;;;;;;;;4971409;28;20121;-87
2022/06/24 06:40:56;;;;;;;3.33;1.60;;;;;;;;;;4985643;28;20131;-87
2022/06/24 06:43:22;;;;;;;2.10;1.10;;;;;;;;;;4958164;28;20125;-85
2022/06/24 06:46:06;;;;;;;3.25;1.50;;;;;;;;;;4989357;28;20041;-88
2022/06/24 06:48:39;;;;;;;2.42;1.27;;;;;;;;;;5014728;28;20560;-87
2022/06/24 06:51:25;;;;;;;2.45;1.23;;;;;;;;;;5012930;28;20088;-87
2022/06/24 06:53:50;;;;;;;2.63;1.13;;;;;;;;;;4966116;28;20510;-86
2022/06/24 06:56:16;;;;;;;2.70;1.13;;;;;;;;;;4949606;28;20061;-88
2022/06/24 06:58:47;;;;;;;3.38;1.30;;;;;;;;;;4948521;28;20039;-89
2022/06/24 07:01:12;;;;;;;4.78;1.08;;;;;;;;;;4947866;28;20046;-87
2022/06/24 07:03:38;;;;;;;3.00;1.40;;;;;;;;;;4950735;28;20138;-88
2022/06/24 07:06:03;;;;;;;3.05;1.30;;;;;;;;;;4949357;28;20043;-86
2022/06/24 07:08:28;;;;;;;2.53;1.20;;;;;;;;;;4949804;28;20081;-85
2022/06/24 07:10:54;;;;;;;3.28;1.25;;;;;;;;;;4948119;28;20368;-88
2022/06/24 07:13:22;;;;;;;2.47;1.15;;;;;;;;;;4936220;28;20534;-86
2022/06/24 07:15:47;;;;;;;2.03;1.20;;;;;;;;;;4932760;28;20119;-86
2022/06/24 07:18:13;;;;;;;2.55;1.10;;;;;;;;;;4937253;28;20174;-85
2022/06/24 07:20:38;;;;;;;2.83;1.30;;;;;;;;;;4952018;28;20039;-84
2022/06/24 07:23:04;;;;;;;2.30;1.10;;;;;;;;;;4927471;28;20058;-85
2022/06/24 07:25:30;;;;;;;2.97;1.02;;;;;;;;;;4907407;29;20044;-86
2022/06/24 07:27:58;;;;;;;3.13;1.33;;;;;;;;;;4910687;29;20058;-88
2022/06/24 07:30:24;;;;;;;4.68;1.40;;;;;;;;;;4914602;28;20054;-89
2022/06/24 07:32:49;;;;;;;2.67;1.10;;;;;;;;;;4953142;28;20030;-87
2022/06/24 07:35:15;;;;;;;2.80;1.30;;;;;;;;;;4959557;28;20070;-87
2022/06/24 07:37:40;;;;;;;3.63;1.40;;;;;;;;;;4963003;28;20038;-88
2022/06/24 07:40:07;;;;;;;3.55;1.23;;;;;;;;;;4941555;28;20192;-89
2022/06/24 07:42:32;;;;;;;2.60;1.20;;;;;;;;;;4961245;28;20437;-88
2022/06/24 07:44:57;;;;;;;3.65;1.30;;;;;;;;;;4954148;28;20309;-87
2022/06/24 07:47:23;;;;;;;2.70;1.30;;;;;;;;;;4962426;28;20540;-88
2022/06/24 07:49:48;;;;;;;3.17;1.30;;;;;;;;;;4950271;28;20042;-88
2022/06/24 07:52:16;;;;;;;2.25;1.10;;;;;;;;;;4966863;28;20034;-89
2022/06/24 07:54:41;;;;;;;2.08;0.90;;;;;;;;;;4954939;28;20081;-87
2022/06/24 07:57:06;;;;;;;3.65;1.38;;;;;;;;;;4961813;28;20042;-87
2022/06/24 07:59:34;;;;;;;2.55;1.15;;;;;;;;;;4953513;28;20588;-87
2022/06/24 08:02:03;;;;;;;;;;;;;;;;;;4951014;28;20062;-87
2022/06/24 08:04:31;;;;;;;2.38;1.20;;;;;;;;;;4953922;28;19949;-89
2022/06/24 08:06:58;;;;;;;6.10;1.40;;;;;;;;;;4953436;28;20045;-88
2022/06/24 08:09:26;;;;;;;2.25;1.08;;;;;;;;;;4953697;28;20038;-87
2022/06/24 08:11:52;;;;;;;2.53;1.08;;;;;;;;;;4951973;28;20037;-88
2022/06/24 08:14:18;;;;;;;2.30;1.07;;;;;;;;;;4943916;28;20042;-85
2022/06/24 08:16:44;;;;;;;3.88;1.23;;;;;;;;;;4957064;28;20552;-88
2022/06/24 08:19:10;;;;;;;5.53;1.10;;;;;;;;;;4953551;28;20058;-87
2022/06/24 08:21:35;;;;;;;2.35;1.20;;;;;;;;;;4952155;28;20120;-85
2022/06/24 08:24:01;;;;;;;2.15;1.20;;;;;;;;;;4988797;28;20045;-87
2022/06/24 08:26:27;;;;;;;2.25;1.05;;;;;;;;;;4986718;28;20429;-87
2022/06/24 08:28:53;;;;;;;6.18;1.10;;;;;;;;;;4987656;28;20552;-85
2022/06/24 08:31:18;;;;;;;2.00;0.90;;;;;;;;;;5003824;28;20038;-86
2022/06/24 08:33:43;;;;;;;2.25;1.00;;;;;;;;;;4988675;28;20038;-87
2022/06/24 08:36:09;;;;;;;2.38;1.05;;;;;;;;;;4988583;28;20046;-87
2022/06/24 08:38:34;;;;;;;4.72;1.10;;;;;;;;;;5004245;28;20461;-86
2022/06/24 08:41:02;;;;;;;3.05;0.93;;;;;;;;;;4988253;28;20037;-88
2022/06/24 08:43:51;;;;;;;2.28;1.05;;;;;;;;;;4983502;28;20084;-86
2022/06/24 08:46:17;;;;;;;5.15;1.13;;;;;;;;;;4929673;28;20070;-85
2022/06/24 08:48:46;;;;;;;2.60;1.17;;;;;;;;;;4931141;28;20055;-85
2022/06/24 08:51:12;;;;;;;2.10;1.00;;;;;;;;;;4929922;28;20140;-86
2022/06/24 08:53:39;;;;;;;2.45;0.90;;;;;;;;;;4929155;28;20570;-86
2022/06/24 08:56:10;;;;;;;2.80;1.15;;;;;;;;;;4928254;28;20520;-87
2022/06/24 08:58:36;;;;;;;3.17;1.08;;;;;;;;;;4929484;28;20043;-90
2022/06/24 09:01:02;;;;;;;1.63;0.90;;;;;;;;;;4928343;28;20110;-86
2022/06/24 09:03:27;;;;;;;1.90;1.10;;;;;;;;;;4943629;28;20047;-87
2022/06/24 09:05:53;;;;;;;2.50;1.20;;;;;;;;;;4928407;28;20442;-86
2022/06/24 09:08:19;;;;;;;2.53;1.03;;;;;;;;;;4929333;28;20915;-86
2022/06/24 09:13:31;;;;;;;3.80;1.00;;;;;;;;;;4932999;28;20452;-85
2022/06/24 09:15:56;;;;;;;2.22;1.00;;;;;;;;;;4936954;28;20039;-86
2022/06/24 09:18:24;;;;;;;1.73;0.93;;;;;;;;;;4945584;28;20158;-89
2022/06/24 09:20:57;;;;;;;3.78;1.23;;;;;;;;;;4913043;28;21115;-88
2022/06/24 09:23:23;;;;;;;2.42;1.20;;;;;;;;;;4952513;28;20473;-86
2022/06/24 09:25:53;;;;;;;2.97;1.30;;;;;;;;;;4988147;28;20041;-86
2022/06/24 09:28:29;;;;;;;2.40;1.10;;;;;;;;;;5007894;28;20046;-86
2022/06/24 09:31:01;;;;;;;4.25;1.17;;;;;;;;;;4986341;28;20482;-87
2022/06/24 09:33:27;;;;;;;3.17;1.02;;;;;;;;;;5005133;28;20045;-85
2022/06/24 09:36:00;;;;;;;2.57;1.00;;;;;;;;;;4986720;28;20038;-89
2022/06/24 09:38:26;;;;;;;2.47;1.00;;;;;;;;;;4985447;28;20129;-85
2022/06/24 09:40:59;;;;;;;2.30;1.07;;;;;;;;;;4987188;28;20117;-89
2022/06/24 09:43:27;;;;;;;3.20;0.95;;;;;;;;;;4980268;28;20038;-87
2022/06/24 09:45:53;;;;;;;1.80;0.88;;;;;;;;;;4978876;28;20191;-87
2022/06/24 09:48:33;;;;;;;2.13;1.00;;;;;;;;;;4990957;28;20140;-88
2022/06/24 09:51:00;;;;;;;1.92;1.00;;;;;;;;;;4986485;28;20120;-87
2022/06/24 09:53:26;;;;;;;2.75;0.98;;;;;;;;;;4992461;28;20042;-87
2022/06/24 09:55:55;;;;;;;;;;;;;;;;;;5011708;28;20041;-86
2022/06/24 09:58:24;;;;;;;1.75;0.80;;;;;;;;;;4986866;28;19921;-87
2022/06/24 10:00:50;;;;;;;2.45;0.90;;;;;;;;;;5018860;28;20042;-87
2022/06/24 10:03:16;;;;;;;2.27;0.90;;;;;;;;;;5002681;28;20042;-86
2022/06/24 10:05:45;;;;;;;1.70;0.80;;;;;;;;;;4986903;28;20096;-85
2022/06/24 10:08:14;;;;;;;1.58;0.77;;;;;;;;;;4986582;28;20046;-86
2022/06/24 10:10:52;;;;;;;1.60;0.75;;;;;;;;;;5002118;28;20034;-87
2022/06/24 10:13:29;;;;;;;2.47;0.75;;;;;;;;;;4985936;28;20111;-84
2022/06/24 10:16:15;;;;;;;3.42;1.02;;;;;;;;;;5005916;28;20049;-85
2022/06/24 10:18:42;;;;;;;1.45;0.68;;;;;;;;;;4893970;29;20645;-88
2022/06/24 10:21:09;;;;;;;2.42;0.80;;;;;;;;;;4908625;29;20220;-87
2022/06/24 10:23:44;;;;;;;1.90;0.70;;;;;;;;;;4908755;29;20448;-86
2022/06/24 10:26:11;;;;;;;1.90;0.70;;;;;;;;;;4893341;29;20135;-85
2022/06/24 10:29:04;;;;;;;1.77;0.60;;;;;;;;;;4892865;29;20051;-86
2022/06/24 10:34:30;;;;;;;2.00;0.80;;;;;;;;;;4909047;29;20130;-88
2022/06/24 10:36:59;;;;;;;2.10;0.80;;;;;;;;;;4873507;29;20040;-88
2022/06/24 10:39:27;;;;;;;1.92;0.80;;;;;;;;;;4893209;29;20040;-88
2022/06/24 10:42:14;;;;;;;2.13;0.90;;;;;;;;;;4873488;29;20074;-85
2022/06/24 10:44:51;;;;;;;1.08;0.60;;;;;;;;;;4893662;29;20563;-87
2022/06/24 10:47:18;;;;;;;1.00;0.57;;;;;;;;;;4884344;29;20044;-85
2022/06/24 10:49:56;;;;;;;1.58;0.80;;;;;;;;;;4893301;29;20404;-85
2022/06/24 10:52:32;;;;;;;1.35;0.68;;;;;;;;;;4907059;29;20569;-85
2022/06/24 10:55:15;;;;;;;;;;;;;;;;;;4895033;28;20065;-84
2022/06/24 10:58:04;;;;;;;3.45;0.70;;;;;;;;;;4997979;28;20012;-85
2022/06/24 11:00:39;;;;;;;2.03;0.88;;;;;;;;;;5007265;28;20030;-86
2022/06/24 11:03:04;;;;;;;2.85;0.70;;;;;;;;;;5005625;28;20226;-86
2022/06/24 11:05:32;;;;;;;2.00;1.00;;;;;;;;;;5006652;28;20072;-87
2022/06/24 11:08:19;;;;;;;3.15;0.90;;;;;;;;;;5005369;28;20049;-87
2022/06/24 11:10:45;;;;;;;1.63;0.80;;;;;;;;;;4945425;29;20094;-86
2022/06/24 11:13:10;;;;;;;2.17;0.90;;;;;;;;;;4915088;29;20051;-85
2022/06/24 11:15:47;;;;;;;1.70;0.80;;;;;;;;;;4921661;29;20039;-87
2022/06/24 11:18:13;;;;;;;2.10;0.80;;;;;;;;;;4929892;29;20094;-86
2022/06/24 11:20:49;;;;;;;2.83;0.88;;;;;;;;;;4929533;29;20043;-87
2022/06/24 11:23:17;;;;;;;1.80;0.70;;;;;;;;;;4944806;29;20094;-87
2022/06/24 11:25:50;;;;;;;1.75;0.80;;;;;;;;;;4914276;29;20063;-84
2022/06/24 11:28:26;;;;;;;2.90;1.20;;;;;;;;;;4930300;29;20519;-85
2022/06/24 11:30:53;;;;;;;1.88;0.80;;;;;;;;;;4918366;29;20050;-85
2022/06/24 11:33:19;;;;;;;2.10;1.00;;;;;;;;;;4914621;29;20046;-85
2022/06/24 11:35:47;;;;;;;1.42;0.70;;;;;;;;;;4913768;29;20031;-85
2022/06/24 11:38:13;;;;;;;3.17;1.00;;;;;;;;;;4935221;29;20047;-86
2022/06/24 11:40:59;;;;;;;1.60;0.80;;;;;;;;;;4914364;29;20050;-84
2022/06/24 11:43:25;;;;;;;3.05;1.20;;;;;;;;;;4907339;29;20523;-84
2022/06/24 11:45:56;;;;;;;2.45;0.80;;;;;;;;;;4891631;29;20033;-85
2022/06/24 11:48:24;;;;;;;3.45;1.15;;;;;;;;;;4919094;28;20502;-83
2022/06/24 11:50:53;;;;;;;3.35;1.40;;;;;;;;;;4964865;28;20162;-85
2022/06/24 11:53:23;;;;;;;2.05;0.90;;;;;;;;;;4933050;28;20133;-85
2022/06/24 11:55:51;;;;;;;3.45;1.10;;;;;;;;;;4932818;28;20045;-83
2022/06/24 11:58:19;;;;;;;2.35;1.15;;;;;;;;;;4948661;28;20601;-85
2022/06/24 12:00:45;;;;;;;2.50;1.23;;;;;;;;;;4948085;28;20035;-85
2022/06/24 12:03:11;;;;;;;1.70;0.97;;;;;;;;;;4948634;28;20528;-82
2022/06/24 12:05:41;;;;;;;2.33;1.13;;;;;;;;;;4948074;28;20565;-86
2022/06/24 12:08:07;;;;;;;2.63;1.00;;;;;;;;;;4964659;28;20450;-83
2022/06/24 12:10:34;;;;;;;1.90;0.80;;;;;;;;;;4932543;28;20038;-84
2022/06/24 12:13:01;;;;;;;1.50;0.90;;;;;;;;;;4947906;28;20039;-84
2022/06/24 12:15:50;;;;;;;2.58;0.75;;;;;;;;;;4963707;28;20557;-85
2022/06/24 12:18:18;;;;;;;1.98;0.80;;;;;;;;;;4931925;28;20633;-85
2022/06/24 12:20:58;;;;;;;2.67;0.85;;;;;;;;;;4973591;28;20041;-84
2022/06/24 12:23:23;;;;;;;2.58;1.08;;;;;;;;;;4991432;28;20042;-84
2022/06/24 12:25:51;;;;;;;1.48;0.77;;;;;;;;;;5000300;28;20041;-81
2022/06/24 12:28:22;;;;;;;2.40;0.90;;;;;;;;;;4988645;28;20476;-82
2022/06/24 12:31:07;;;;;;;3.25;1.35;;;;;;;;;;4988043;28;20099;-83
2022/06/24 12:33:39;;;;;;;2.97;1.02;;;;;;;;;;4988555;28;20041;-82
2022/06/24 12:36:08;;;;;;;1.58;0.80;;;;;;;;;;5003203;28;20529;-80
2022/06/24 12:38:34;;;;;;;1.98;0.90;;;;;;;;;;5004400;28;20038;-81
2022/06/24 12:41:13;;;;;;;2.90;0.80;;;;;;;;;;4987759;28;20034;-81
2022/06/24 12:44:01;;;;;;;2.00;0.82;;;;;;;;;;5020588;28;20108;-82
2022/06/24 12:52:29;;;;;;;1.52;0.70;;;;;;;;;;5003989;28;20088;-82
2022/06/24 12:54:54;;;;;;;2.15;1.00;;;;;;;;;;5005623;28;21002;-81
2022/06/24 12:57:19;;;;;;;1.52;0.73;;;;;;;;;;4987554;28;20049;-82
2022/06/24 12:59:45;;;;;;;1.60;0.80;;;;;;;;;;4988290;28;20048;-84
2022/06/24 13:02:10;;;;;;;1.70;0.80;;;;;;;;;;4991516;28;20048;-82
2022/06/24 13:04:35;;;;;;;2.42;1.00;;;;;;;;;;5004447;28;20109;-82
2022/06/24 13:07:04;;;;;;;2.75;1.30;;;;;;;;;;4982962;28;20088;-81
2022/06/24 13:09:29;;;;;;;3.38;0.70;;;;;;;;;;4989050;28;20053;-83
2022/06/24 13:11:54;;;;;;;2.20;1.00;;;;;;;;;;4989353;28;20040;-82
2022/06/24 13:14:20;;;;;;;2.42;1.02;;;;;;;;;;4994031;28;20401;-83
2022/06/24 13:16:45;;;;;;;4.18;1.00;;;;;;;;;;5003557;28;20037;-83
2022/06/24 13:19:11;;;;;;;2.08;0.80;;;;;;;;;;4988450;28;20048;-82
2022/06/24 13:21:39;;;;;;;1.50;0.82;;;;;;;;;;4987124;28;20034;-82
2022/06/24 13:24:04;;;;;;;1.48;0.80;;;;;;;;;;4987389;28;20061;-81
2022/06/24 13:26:30;;;;;;;1.55;0.75;;;;;;;;;;4987037;28;20069;-81
2022/06/24 13:28:55;;;;;;;1.67;0.80;;;;;;;;;;4987946;28;20062;-82
2022/06/24 13:31:22;;;;;;;2.67;0.90;;;;;;;;;;4992602;28;20128;-81
2022/06/24 13:33:48;;;;;;;2.38;0.88;;;;;;;;;;4999283;28;20674;-81
2022/06/24 13:36:13;;;;;;;2.75;0.90;;;;;;;;;;4987893;28;20038;-82
2022/06/24 13:38:38;;;;;;;1.60;0.70;;;;;;;;;;4988840;28;20040;-82
2022/06/24 13:41:04;;;;;;;2.38;0.80;;;;;;;;;;5003372;28;20101;-83
2022/06/24 13:43:29;;;;;;;1.95;0.90;;;;;;;;;;5003213;28;20037;-84
2022/06/24 13:45:55;;;;;;;1.85;0.80;;;;;;;;;;4986862;28;20068;-82
2022/06/24 13:48:20;;;;;;;1.95;0.70;;;;;;;;;;4981007;28;20069;-81
2022/06/24 13:50:46;;;;;;;1.65;0.75;;;;;;;;;;5006366;28;20033;-84
2022/06/24 13:53:11;;;;;;;1.77;0.90;;;;;;;;;;5008682;28;20405;-82
2022/06/24 13:55:36;;;;;;;1.92;0.90;;;;;;;;;;4994572;28;20041;-82
2022/06/24 13:58:02;;;;;;;1.55;0.73;;;;;;;;;;4987384;28;20046;-84
2022/06/24 14:00:27;;;;;;;1.67;0.60;;;;;;;;;;4990540;28;20754;-82
2022/06/24 14:02:53;;;;;;;1.42;0.70;;;;;;;;;;4991207;28;20038;-83
2022/06/24 14:05:19;;;;;;;3.05;0.90;;;;;;;;;;5007048;28;20449;-82
2022/06/24 14:07:44;;;;;;;3.25;0.80;;;;;;;;;;4991220;28;20034;-85
2022/06/24 14:10:09;;;;;;;4.50;0.88;;;;;;;;;;4985712;28;20477;-81
2022/06/24 14:12:35;;;;;;;2.30;1.13;;;;;;;;;;4991031;28;20630;-80
2022/06/24 14:15:01;;;;;;;1.83;0.80;;;;;;;;;;4991270;28;20038;-82
2022/06/24 14:17:28;;;;;;;1.52;0.77;;;;;;;;;;5007015;28;20038;-81
2022/06/24 14:19:53;;;;;;;1.58;0.60;;;;;;;;;;5001347;28;20030;-81
2022/06/24 14:22:19;;;;;;;1.52;0.70;;;;;;;;;;4996526;28;20054;-82
2022/06/24 14:24:45;;;;;;;1.60;0.80;;;;;;;;;;4982609;28;20034;-82
2022/06/24 14:27:10;;;;;;;3.17;0.80;;;;;;;;;;4983945;28;20810;-81
2022/06/24 14:29:38;;;;;;;1.55;0.80;;;;;;;;;;5002381;28;20030;-81
2022/06/24 14:32:04;;;;;;;1.60;0.60;;;;;;;;;;4989512;28;20129;-80
2022/06/24 14:34:31;;;;;;;5.00;0.90;;;;;;;;;;5007925;28;20108;-81
2022/06/24 14:36:56;;;;;;;2.35;0.73;;;;;;;;;;4990585;28;20037;-80
2022/06/24 14:42:06;;;;;;;1.60;0.77;;;;;;;;;;5006602;28;20103;-81
2022/06/24 14:44:34;;;;;;;1.77;0.75;;;;;;;;;;4992189;28;20038;-81
2022/06/24 14:47:04;;;;;;;1.95;0.80;;;;;;;;;;5004938;28;20038;-81
2022/06/24 14:49:30;;;;;;;2.28;0.80;;;;;;;;;;5006681;28;20033;-81
2022/06/24 14:51:56;;;;;;;1.90;0.90;;;;;;;;;;4990309;28;20543;-82
2022/06/24 14:54:21;;;;;;;1.65;0.98;;;;;;;;;;5006825;28;20045;-81
2022/06/24 14:56:47;;;;;;;2.75;0.80;;;;;;;;;;4989018;28;20037;-81
2022/06/24 14:59:12;;;;;;;1.95;0.80;;;;;;;;;;4990796;28;20055;-84
2022/06/24 15:01:38;;;;;;;3.13;1.00;;;;;;;;;;4994006;28;20068;-82
2022/06/24 15:04:06;;;;;;;2.30;0.82;;;;;;;;;;5006941;28;20064;-82
2022/06/24 15:06:32;;;;;;;1.85;0.90;;;;;;;;;;5005759;28;20069;-81
2022/06/24 15:08:58;;;;;;;12.32;1.10;;;;;;;;;;4990624;28;20030;-81